Time;durP1;ratioP1;P1;durP2;ratioP2;P2;SDS_P1;SDS_P2;PMS_P1;PMS_P2;Temp;Humidity;BMP_temperature;BMP_pressure;BME280_temperature;BME280_humidity;BME280_pressure;Samples;Min_cycle;Max_cycle;Signal;HPM_P1;HPM_P2
2023/09/10 02:10:56;;;;;;;6.50;2.00;;;;;;;14.13;65.94;99754.81;5083915;23;20046;-96
2023/09/10 02:13:36;;;;;;;3.58;1.90;;;;;;;14.21;66.21;99763.41;4979744;28;20141;-96
2023/09/10 02:16:22;;;;;;;3.40;2.10;;;;;;;14.25;66.21;99754.44;4980110;28;20050;-96
2023/09/10 02:19:08;;;;;;;2.90;1.92;;;;;;;14.35;65.73;99746.22;4981247;28;20042;-96
2023/09/10 02:24:39;;;;;;;6.35;1.98;;;;;;;14.44;65.95;99745.59;4995689;28;20038;-96
2023/09/10 02:27:33;;;;;;;8.45;2.30;;;;;;;14.40;66.31;99749.97;4960850;28;20050;-96
2023/09/10 02:30:18;;;;;;;6.05;2.20;;;;;;;14.30;66.66;99751.69;4974032;29;20516;-96
2023/09/10 02:56:18;;;;;;;4.15;2.00;;;;;;;14.38;64.99;99769.25;4926872;28;20499;-95
2023/09/10 02:58:45;;;;;;;4.65;2.13;;;;;;;14.40;64.64;99775.19;4896530;29;20063;-96
2023/09/10 03:01:31;;;;;;;5.25;1.90;;;;;;;14.50;64.72;99790.53;4897298;29;20032;-96
2023/09/10 03:04:21;;;;;;;2.92;1.80;;;;;;;14.41;64.02;99773.28;4919032;29;20029;-96
2023/09/10 03:07:16;;;;;;;3.25;1.75;;;;;;;14.42;62.61;99764.06;4934679;29;20056;-96
2023/09/10 03:09:42;;;;;;;5.20;1.63;;;;;;;14.38;62.35;99761.13;4861472;29;20041;-96
2023/09/10 03:12:31;;;;;;;3.67;1.80;;;;;;;14.45;62.24;99766.22;4847001;29;20046;-96
2023/09/10 03:15:05;;;;;;;5.72;1.83;;;;;;;14.40;62.41;99758.09;4847975;29;20038;-96
2023/09/10 03:17:50;;;;;;;5.60;2.20;;;;;;;14.50;62.63;99774.28;4847299;29;20041;-96
2023/09/10 03:20:41;;;;;;;5.72;1.85;;;;;;;14.37;64.06;99772.25;4861830;29;20113;-96
2023/09/10 03:23:18;;;;;;;4.05;2.10;;;;;;;14.27;64.96;99773.91;4889747;29;20045;-96
2023/09/10 03:25:58;;;;;;;;;;;;;;;14.31;65.68;99791.22;4827483;29;20039;-96
2023/09/10 03:28:27;;;;;;;6.80;2.08;;;;;;;14.14;66.04;99780.78;4839145;29;19919;-96
2023/09/10 03:31:35;;;;;;;3.55;2.00;;;;;;;14.06;66.51;99773.25;4807389;29;20049;-96
2023/09/10 03:34:10;;;;;;;5.63;2.40;;;;;;;14.19;66.93;99798.09;4839071;29;20039;-96
2023/09/10 03:36:39;;;;;;;6.00;2.10;;;;;;;14.03;67.17;99784.69;4824403;29;20590;-96
2023/09/10 03:39:13;;;;;;;3.85;2.22;;;;;;;14.08;67.20;99797.38;4838430;29;20038;-96
2023/09/10 03:41:48;;;;;;;3.85;2.10;;;;;;;13.88;67.69;99790.16;4843090;29;20068;-96
2023/09/10 03:44:21;;;;;;;6.25;2.10;;;;;;;13.79;67.25;99784.53;4847226;29;20041;-96
2023/09/10 03:46:53;;;;;;;4.45;2.15;;;;;;;13.87;67.67;99805.59;4845666;29;20041;-96
2023/09/10 03:49:19;;;;;;;;;;;;;;;13.84;68.12;99813.47;4859322;29;20037;-96
2023/09/10 03:51:56;;;;;;;3.88;1.80;;;;;;;13.60;68.08;99795.19;4858777;29;19919;-96
2023/09/10 03:54:38;;;;;;;6.28;2.03;;;;;;;13.64;67.67;99790.03;4861400;29;20062;-96
2023/09/10 03:57:10;;;;;;;4.65;2.30;;;;;;;13.80;67.91;99812.41;4908379;29;20047;-96
2023/09/10 03:59:52;;;;;;;6.43;2.17;;;;;;;13.82;67.73;99815.66;4917117;29;20095;-96
2023/09/10 04:02:24;;;;;;;7.82;2.30;;;;;;;13.65;67.97;99797.06;4902014;29;20040;-96
2023/09/10 04:05:11;;;;;;;4.32;1.98;;;;;;;13.63;68.15;99796.53;4902009;29;20041;-96
2023/09/10 04:08:13;;;;;;;;;;;;;;;;;;;;;
2023/09/10 04:10:44;;;;;;;4.93;2.17;;;;;;;13.69;68.33;99798.94;4916642;29;20071;-96
2023/09/10 04:13:17;;;;;;;7.63;2.10;;;;;;;13.74;67.97;99798.13;4919050;29;20092;-96
2023/09/10 04:15:57;;;;;;;3.58;2.05;;;;;;;13.84;67.26;99789.09;4918853;29;20119;-96
2023/09/10 04:18:29;;;;;;;3.15;2.10;;;;;;;13.83;67.55;99801.84;4902328;29;20123;-96
2023/09/10 04:20:54;;;;;;;4.97;2.33;;;;;;;13.78;67.50;99795.63;4899864;29;20052;-95
2023/09/10 04:23:36;;;;;;;6.55;2.30;;;;;;;13.84;67.43;99798.06;4916332;29;20032;-96
2023/09/10 04:26:06;;;;;;;5.35;1.90;;;;;;;13.97;67.00;99815.56;4916905;29;20104;-96
2023/09/10 04:28:32;;;;;;;3.75;2.30;;;;;;;14.03;66.87;99819.03;4918305;29;20024;-96
2023/09/10 04:31:04;;;;;;;4.57;2.53;;;;;;;14.10;66.53;99825.78;4898716;29;20068;-96
2023/09/10 04:33:32;;;;;;;3.13;1.92;;;;;;;13.91;67.10;99805.88;4900888;29;20036;-96
2023/09/10 04:36:28;;;;;;;4.57;2.20;;;;;;;13.91;67.59;99817.50;4904370;29;20040;-96
2023/09/10 04:39:07;;;;;;;5.70;2.13;;;;;;;13.88;67.51;99812.66;4923151;29;20119;-96
2023/09/10 04:42:02;;;;;;;3.63;1.90;;;;;;;13.91;67.01;99812.09;4906232;29;20414;-96
2023/09/10 04:44:36;;;;;;;5.05;2.13;;;;;;;14.00;67.28;99825.84;4920378;29;20070;-95
2023/09/10 04:47:15;;;;;;;3.85;2.10;;;;;;;13.98;68.12;99828.00;4908103;29;20040;-96
2023/09/10 04:52:42;;;;;;;7.72;2.60;;;;;;;13.85;68.57;99826.72;5031342;23;20050;-96
2023/09/10 04:55:15;;;;;;;;;;;;;;;13.89;68.01;99827.78;4989891;28;20071;-95
2023/09/10 04:58:05;;;;;;;;;;;;;;;;;;;;;
2023/09/10 05:31:55;;;;;;;3.63;2.30;;;;;;;14.40;65.85;99829.38;4972655;28;20056;-96
2023/09/10 05:35:00;;;;;;;7.53;2.25;;;;;;;14.61;65.25;99842.78;4956224;29;20059;-96
2023/09/10 05:44:20;;;;;;;5.65;2.30;;;;;;;14.83;63.13;99829.56;4940393;29;20031;-96
2023/09/10 05:48:01;;;;;;;;;;;;;;;;;;;;;
2023/09/10 05:57:58;;;;;;;5.30;2.08;;;;;;;15.10;61.08;99833.66;4940080;29;20051;-96
2023/09/10 06:01:31;;;;;;;;;;;;;;;;;;;;;
2023/09/10 06:09:34;;;;;;;4.07;1.77;;;;;;;15.51;59.03;99855.72;5093081;23;20063;-96
2023/09/10 06:14:50;;;;;;;5.30;3.20;;;;;;;15.89;58.87;99887.59;5190340;23;20077;-96
2023/09/10 06:43:08;;;;;;;3.05;1.70;;;;;;;17.60;51.53;99880.00;4683269;23;20326;-96
2023/09/10 06:46:08;;;;;;;;;;;;;;;;;;;;;
2023/09/10 06:48:47;;;;;;;2.97;1.85;;;;;;;17.92;50.71;99864.66;4949670;28;20045;-96
2023/09/10 06:57:29;;;;;;;3.38;1.50;;;;;;;18.27;49.80;99851.34;5637711;23;20043;-95
2023/09/10 07:00:28;;;;;;;;;;;;;;;;;;;;;
2023/09/10 07:06:50;;;;;;;4.85;1.90;;;;;;;18.85;48.59;99877.00;4890115;29;20088;-96
2023/09/10 07:09:36;;;;;;;4.88;2.25;;;;;;;18.75;51.05;99864.38;4897572;29;20040;-96
2023/09/10 07:12:06;;;;;;;6.50;1.98;;;;;;;18.76;51.40;99866.00;4866474;29;20041;-96
2023/09/10 07:35:16;;;;;;;9.10;2.30;;;;;;;19.70;46.41;99882.38;5314387;23;20054;-96
2023/09/10 08:04:28;;;;;;;6.05;1.90;;;;;;;21.37;39.74;99869.16;5919709;23;20040;-96
2023/09/10 08:06:54;;;;;;;4.75;2.03;;;;;;;21.52;39.28;99867.81;4962134;28;20050;-95
2023/09/10 08:09:20;;;;;;;5.25;2.20;;;;;;;21.64;40.03;99864.38;4944801;28;20041;-96
2023/09/10 08:11:45;;;;;;;4.13;2.10;;;;;;;21.88;39.98;99873.94;4960980;28;20039;-96
2023/09/10 08:14:11;;;;;;;5.13;1.88;;;;;;;22.06;40.10;99869.09;4961325;28;20022;-96
2023/09/10 08:16:39;;;;;;;4.00;1.95;;;;;;;22.20;40.05;99866.91;4960426;28;20474;-95
2023/09/10 08:19:05;;;;;;;8.52;1.80;;;;;;;22.20;40.31;99862.25;4944974;28;20034;-95
2023/09/10 08:21:30;;;;;;;8.15;2.35;;;;;;;22.23;39.67;99879.19;4959399;28;20042;-96
2023/09/10 08:23:56;;;;;;;3.22;1.90;;;;;;;22.14;39.66;99855.34;4944635;28;20110;-96
2023/09/10 08:26:21;;;;;;;9.45;2.00;;;;;;;22.30;39.70;99861.06;4947374;28;20035;-96
2023/09/10 08:28:47;;;;;;;4.90;3.03;;;;;;;22.36;39.61;99853.44;4963672;28;20489;-96
2023/09/10 08:31:13;;;;;;;4.30;2.35;;;;;;;22.42;39.43;99849.34;4948157;28;20516;-96
2023/09/10 08:33:38;;;;;;;5.70;2.83;;;;;;;22.57;40.30;99851.47;4962903;28;20038;-95
2023/09/10 08:36:04;;;;;;;6.80;2.50;;;;;;;22.73;39.97;99859.88;4963715;28;20510;-96
2023/09/10 08:38:29;;;;;;;6.03;2.25;;;;;;;22.81;38.63;99855.44;4948846;28;20030;-96
2023/09/10 08:40:58;;;;;;;4.78;2.10;;;;;;;22.93;38.98;99855.47;4964070;28;20031;-96
2023/09/10 08:43:44;;;;;;;8.48;2.60;;;;;;;22.95;39.04;99846.88;4965348;28;20035;-96
2023/09/10 08:46:10;;;;;;;7.43;2.97;;;;;;;23.17;38.71;99852.00;4982266;28;20072;-96
2023/09/10 08:48:38;;;;;;;4.40;2.20;;;;;;;23.16;38.96;99853.16;4965007;28;20031;-96
2023/09/10 09:04:11;;;;;;;5.25;2.00;;;;;;;23.45;38.14;99834.03;5713910;23;20042;-96
2023/09/10 09:06:38;;;;;;;6.03;2.00;;;;;;;23.56;38.28;99835.19;4985653;28;20035;-96
2023/09/10 09:09:08;;;;;;;3.70;2.00;;;;;;;23.73;38.34;99843.19;4954689;28;20038;-96
2023/09/10 09:11:43;;;;;;;11.05;2.80;;;;;;;23.89;38.26;99840.56;4971940;28;20050;-96
2023/09/10 09:14:09;;;;;;;4.55;2.00;;;;;;;23.93;37.65;99833.22;4954574;28;20042;-96
2023/09/10 10:48:19;;;;;;;7.65;2.20;;;;;;;25.35;34.83;99738.25;5629020;23;20025;-96
2023/09/10 10:50:47;;;;;;;7.68;2.08;;;;;;;25.50;34.75;99733.06;4931512;28;20128;-96
2023/09/10 10:53:52;;;;;;;4.75;2.17;;;;;;;25.63;34.76;99740.06;4953878;28;20031;-96
2023/09/10 10:56:29;;;;;;;4.60;1.75;;;;;;;25.68;33.61;99734.25;4989553;28;20031;-96
2023/09/10 11:03:09;;;;;;;;;;;;;;;;;;;;;
2023/09/10 11:05:55;;;;;;;7.20;2.15;;;;;;;26.09;33.50;99731.97;4978094;28;20038;-96
2023/09/10 11:08:31;;;;;;;6.82;1.98;;;;;;;26.04;32.95;99717.66;4968564;28;20043;-96
2023/09/10 11:11:34;;;;;;;5.78;1.80;;;;;;;26.39;32.53;99706.50;4953061;28;20022;-96
2023/09/10 11:14:11;;;;;;;;;;;;;;;;;;;;;
2023/09/10 11:16:43;;;;;;;4.00;2.10;;;;;;;27.02;32.19;99703.25;4902466;29;20088;-96
2023/09/10 11:27:54;;;;;;;4.90;1.60;;;;;;;26.76;32.09;99692.94;5157790;23;20054;-96
2023/09/10 11:33:31;;;;;;;5.10;1.80;;;;;;;26.67;31.88;99678.59;4948590;28;20070;-96
2023/09/10 11:36:10;;;;;;;3.80;1.83;;;;;;;26.63;32.33;99696.28;4961119;28;20034;-96
2023/09/10 11:39:15;;;;;;;7.18;2.17;;;;;;;26.43;32.32;99685.25;4977847;28;20070;-96
2023/09/10 11:42:25;;;;;;;;;;;;;;;;;;;;;
2023/09/10 11:45:17;;;;;;;5.97;2.25;;;;;;;26.18;32.70;99674.56;4899680;29;20056;-96
2023/09/10 11:48:02;;;;;;;;;;;;;;;;;;;;;
2023/09/10 11:50:38;;;;;;;7.15;2.40;;;;;;;26.21;32.72;99684.09;4978874;28;19910;-96
2023/09/10 11:53:04;;;;;;;6.85;2.03;;;;;;;26.15;32.84;99682.81;4953035;28;20031;-96
2023/09/10 11:56:10;;;;;;;4.57;1.70;;;;;;;26.23;32.10;99690.06;4953175;28;20038;-96
2023/09/10 11:59:04;;;;;;;4.90;2.35;;;;;;;26.17;32.36;99669.44;4974131;28;20035;-96
2023/09/10 12:02:11;;;;;;;4.30;1.67;;;;;;;26.39;32.14;99684.41;4959999;28;20598;-96
2023/09/10 12:05:12;;;;;;;2.85;1.58;;;;;;;26.41;31.88;99669.06;4940449;28;20082;-96
2023/09/10 12:08:08;;;;;;;;;;;;;;;;;;;;;
2023/09/10 12:18:03;;;;;;;5.43;1.88;;;;;;;26.68;31.68;99660.06;4844187;29;20040;-95
2023/09/10 12:21:19;;;;;;;7.57;1.90;;;;;;;26.68;31.85;99657.28;4816944;29;20069;-96
2023/09/10 12:24:12;;;;;;;6.88;2.20;;;;;;;26.54;32.12;99644.00;4847527;29;20057;-96
2023/09/10 12:27:04;;;;;;;6.47;1.92;;;;;;;26.52;31.81;99657.38;4804380;29;20058;-96
2023/09/10 12:29:31;;;;;;;5.82;1.90;;;;;;;26.49;31.90;99645.13;4786048;29;20057;-96
2023/09/10 12:35:33;;;;;;;9.25;2.00;;;;;;;26.61;31.21;99641.41;4815314;29;20050;-96
2023/09/10 12:41:35;;;;;;;4.05;2.22;;;;;;;26.72;31.27;99630.53;4811863;29;20039;-96
2023/09/10 12:44:54;;;;;;;5.78;1.95;;;;;;;26.90;31.26;99644.63;4820851;29;20042;-96
2023/09/10 12:47:46;;;;;;;5.20;2.20;;;;;;;26.71;31.90;99626.16;4870498;29;20077;-96
2023/09/10 12:50:47;;;;;;;;;;;;;;;;;;;;;
2023/09/10 12:53:21;;;;;;;6.68;2.08;;;;;;;26.89;30.15;99637.47;4900687;29;20071;-96
2023/09/10 12:56:30;;;;;;;;;;;;;;;;;;;;;
2023/09/10 13:02:57;;;;;;;;;;;;;;;;;;;;;
2023/09/10 13:05:34;;;;;;;4.65;1.88;;;;;;;27.37;30.14;99612.88;4901316;29;20151;-96
2023/09/10 13:08:27;;;;;;;4.25;1.88;;;;;;;27.51;30.24;99620.56;4915362;29;20040;-96
2023/09/10 13:18:25;;;;;;;;;;;;;;;;;;;;;
2023/09/10 13:20:58;;;;;;;6.85;2.00;;;;;;;27.60;30.59;99619.13;4941537;29;20051;-96
2023/09/10 13:23:24;;;;;;;7.70;2.10;;;;;;;27.70;31.08;99619.59;4919406;29;20048;-96
2023/09/10 13:25:57;;;;;;;10.25;1.80;;;;;;;27.72;31.07;99615.28;4953873;29;20483;-96
2023/09/10 13:28:34;;;;;;;6.53;2.03;;;;;;;27.49;30.90;99609.09;4948699;29;20119;-96
2023/09/10 13:31:32;;;;;;;3.33;1.60;;;;;;;27.33;31.09;99598.22;4933070;29;20118;-96
2023/09/10 13:34:13;;;;;;;5.95;1.95;;;;;;;27.13;30.62;99601.09;4921483;29;20032;-96
2023/09/10 13:37:11;;;;;;;;;;;;;;;;;;;;;
2023/09/10 13:45:31;;;;;;;8.55;2.75;;;;;;;26.96;31.35;99607.19;4988792;28;20096;-96
2023/09/10 13:48:16;;;;;;;4.07;1.90;;;;;;;26.91;31.09;99591.72;4973892;28;20062;-96
2023/09/10 13:50:46;;;;;;;9.27;2.45;;;;;;;27.03;30.96;99587.94;4929336;28;20045;-96
2023/09/10 13:53:31;;;;;;;;;;;;;;;;;;;;;
2023/09/10 13:55:59;;;;;;;6.57;2.10;;;;;;;27.39;30.65;99585.66;4958611;28;20102;-96
2023/09/10 13:58:27;;;;;;;8.45;2.08;;;;;;;27.45;30.51;99597.97;4938422;28;20473;-96
2023/09/10 14:01:03;;;;;;;9.25;2.13;;;;;;;27.29;30.54;99602.91;4938661;28;20042;-96
2023/09/10 14:03:34;;;;;;;8.77;2.15;;;;;;;27.20;30.47;99601.19;4942476;28;20556;-96
2023/09/10 14:06:03;;;;;;;4.38;1.80;;;;;;;27.26;31.04;99606.44;4937869;28;20059;-96
2023/09/10 14:08:39;;;;;;;5.10;1.90;;;;;;;27.23;30.65;99591.41;4936169;28;20185;-96
2023/09/10 14:11:19;;;;;;;5.75;1.83;;;;;;;27.25;30.38;99578.00;4952056;28;20124;-96
2023/09/10 14:13:46;;;;;;;7.43;1.90;;;;;;;27.26;30.60;99590.63;4934199;28;20049;-95
2023/09/10 14:16:47;;;;;;;;;;;;;;;;;;;;;
2023/09/10 14:19:28;;;;;;;6.70;2.08;;;;;;;27.71;30.58;99579.69;4983481;28;20063;-96
2023/09/10 14:21:53;;;;;;;11.98;1.90;;;;;;;27.70;30.04;99575.31;4952522;28;20093;-96
2023/09/10 14:27:43;;;;;;;;;;;;;;;27.78;30.68;99594.38;4984558;28;20045;-96
2023/09/10 14:30:12;;;;;;;7.70;1.95;;;;;;;27.65;30.85;99584.78;4951911;28;19980;-96
2023/09/10 14:32:41;;;;;;;3.92;1.63;;;;;;;27.60;30.59;99583.16;4937241;28;20042;-96
2023/09/10 14:35:07;;;;;;;5.03;1.98;;;;;;;27.54;31.07;99578.34;4936466;28;20038;-96
2023/09/10 14:37:34;;;;;;;7.20;1.70;;;;;;;27.40;30.00;99581.72;4935752;28;20485;-96
2023/09/10 14:40:12;;;;;;;3.65;1.73;;;;;;;27.28;30.42;99574.47;4935656;28;20541;-96
2023/09/10 14:42:46;;;;;;;6.68;2.05;;;;;;;27.25;30.46;99593.75;4937098;28;20101;-96
2023/09/10 14:48:31;;;;;;;5.60;1.87;;;;;;;26.87;31.19;99568.78;4934800;29;20119;-96
2023/09/10 14:51:25;;;;;;;3.88;2.40;;;;;;;26.65;31.21;99575.97;4900543;29;20818;-96
2023/09/10 14:54:29;;;;;;;9.45;1.80;;;;;;;26.60;31.48;99581.78;4906849;29;20028;-96
2023/09/10 14:57:05;;;;;;;10.05;2.38;;;;;;;26.45;31.49;99563.41;4913569;29;20032;-96
2023/09/10 15:00:04;;;;;;;5.72;1.70;;;;;;;26.38;31.71;99569.63;4927502;28;20044;-96
2023/09/10 15:02:57;;;;;;;4.35;1.85;;;;;;;26.37;32.15;99587.34;4970029;28;20099;-96
2023/09/10 15:05:42;;;;;;;7.22;1.73;;;;;;;26.21;32.00;99573.69;4955211;28;20066;-96
2023/09/10 15:08:12;;;;;;;7.57;1.83;;;;;;;26.15;31.58;99583.44;4937573;28;20062;-96
2023/09/10 15:13:43;;;;;;;7.13;1.67;;;;;;;25.84;31.16;99570.63;4911233;28;20035;-96
2023/09/10 15:16:26;;;;;;;;;;;;;;;;;;;;;
2023/09/10 15:19:00;;;;;;;7.07;2.20;;;;;;;25.66;31.90;99559.28;4959490;28;20533;-96
2023/09/10 15:21:41;;;;;;;4.93;2.00;;;;;;;25.60;31.69;99573.34;4942028;28;20041;-96
2023/09/10 15:27:15;;;;;;;8.13;2.10;;;;;;;25.48;31.58;99569.94;4955966;28;20027;-96
2023/09/10 15:33:09;;;;;;;;;;;;;;;;;;;;;
2023/09/10 15:36:03;;;;;;;;;;;;;;;;;;;;;
2023/09/10 15:38:38;;;;;;;6.53;1.80;;;;;;;25.15;31.26;99562.97;4963320;28;20469;-96
2023/09/10 15:41:26;;;;;;;5.00;1.70;;;;;;;25.08;32.10;99569.13;4988213;28;20038;-96
2023/09/10 15:44:03;;;;;;;4.57;1.70;;;;;;;25.09;31.99;99578.19;4972891;28;20055;-96
2023/09/10 15:47:10;;;;;;;;;;;;;;;;;;;;;
2023/09/10 15:49:51;;;;;;;4.35;1.88;;;;;;;24.92;31.88;99562.88;4935411;29;20055;-96
2023/09/10 15:52:55;;;;;;;5.97;2.08;;;;;;;24.78;32.26;99550.38;4902401;29;20117;-96
2023/09/10 15:58:47;;;;;;;5.78;2.00;;;;;;;24.69;32.11;99569.06;4934448;29;20042;-96
2023/09/10 16:01:21;;;;;;;5.18;1.75;;;;;;;24.59;32.05;99556.66;4919348;29;20048;-96
2023/09/10 16:04:16;;;;;;;11.07;2.30;;;;;;;24.52;32.18;99556.47;4903337;29;20514;-96
2023/09/10 16:07:17;;;;;;;7.22;1.92;;;;;;;24.46;32.21;99559.84;4920253;29;20056;-96
2023/09/10 16:11:08;;;;;;;3.28;1.83;;;;;;;24.44;32.22;99579.47;4907299;29;20072;-96
2023/09/10 16:13:46;;;;;;;;;;;;;;;;;;;;;
2023/09/10 16:16:48;;;;;;;9.38;2.10;;;;;;;24.26;32.54;99576.28;4959993;28;20070;-96
2023/09/10 16:19:53;;;;;;;;;;;;;;;24.25;32.49;99580.19;4937865;29;20031;-96
2023/09/10 16:23:10;;;;;;;7.13;2.10;;;;;;;24.09;32.25;99582.13;4932709;29;19922;-96
2023/09/10 16:28:50;;;;;;;7.57;2.35;;;;;;;23.88;32.75;99563.13;4897868;29;20385;-96
2023/09/10 16:35:35;;;;;;;5.97;2.20;;;;;;;23.85;32.77;99586.63;4862915;29;20109;-96
2023/09/10 16:38:37;;;;;;;7.43;1.85;;;;;;;23.64;32.90;99572.25;4847301;29;20048;-96
2023/09/10 16:41:05;;;;;;;;;;;;;;;23.78;32.78;99597.44;4878742;29;20047;-96
2023/09/10 16:47:32;;;;;;;;;;;;;;;;;;;;;
2023/09/10 16:52:59;;;;;;;;;;;;;;;;;;;;;
2023/09/10 16:55:27;;;;;;;3.20;1.80;;;;;;;23.41;33.28;99597.59;4919832;29;20060;-96
2023/09/10 16:58:11;;;;;;;5.45;1.95;;;;;;;23.24;33.20;99589.63;4919694;29;20064;-96
2023/09/10 17:00:44;;;;;;;3.88;2.28;;;;;;;23.23;33.41;99588.03;4920034;29;20032;-96
2023/09/10 17:03:10;;;;;;;7.00;2.03;;;;;;;23.21;33.19;99607.59;4918338;29;20519;-96
2023/09/10 17:05:38;;;;;;;3.63;2.17;;;;;;;23.22;33.53;99609.19;4903990;29;20043;-96
2023/09/10 17:08:11;;;;;;;4.93;2.00;;;;;;;23.08;33.48;99595.84;4934302;29;20514;-96
2023/09/10 17:10:57;;;;;;;5.80;1.95;;;;;;;23.01;33.43;99592.88;4978786;28;20091;-96
2023/09/10 17:13:32;;;;;;;5.85;1.90;;;;;;;23.06;33.89;99611.88;4975233;28;20421;-96
2023/09/10 17:16:17;;;;;;;5.53;1.90;;;;;;;22.94;34.07;99598.13;4977788;28;20039;-96
2023/09/10 17:18:52;;;;;;;6.60;2.20;;;;;;;22.91;33.40;99596.88;4964284;28;20059;-96
2023/09/10 17:21:27;;;;;;;7.10;2.05;;;;;;;22.89;34.31;99601.91;4977888;28;20035;-96
2023/09/10 17:24:14;;;;;;;7.00;1.90;;;;;;;22.88;34.34;99611.28;4963500;28;20075;-96
2023/09/10 17:33:11;;;;;;;5.25;2.20;;;;;;;22.83;34.67;99628.00;4980840;28;20071;-95
2023/09/10 17:35:59;;;;;;;;;;;;;;;;;;;;;
2023/09/10 17:38:52;;;;;;;8.13;2.63;;;;;;;22.62;34.43;99619.06;4981388;28;20043;-96
2023/09/10 17:41:29;;;;;;;3.15;2.00;;;;;;;22.49;35.15;99618.28;4966251;28;20114;-95
2023/09/10 17:44:23;;;;;;;7.80;2.40;;;;;;;22.46;34.99;99625.25;4997188;28;20040;-96
2023/09/10 17:46:57;;;;;;;4.28;2.00;;;;;;;22.47;34.75;99637.03;4956307;28;20031;-96
2023/09/10 17:49:44;;;;;;;4.65;1.90;;;;;;;22.34;35.29;99625.25;4970390;28;20035;-95
2023/09/10 17:52:32;;;;;;;8.60;1.70;;;;;;;22.40;35.19;99646.63;4954590;28;20043;-96
2023/09/10 17:55:11;;;;;;;6.68;2.13;;;;;;;22.40;35.28;99640.34;4985362;28;20035;-96
2023/09/10 17:57:46;;;;;;;4.70;2.00;;;;;;;22.43;35.47;99660.81;4953681;28;20031;-96
2023/09/10 18:00:28;;;;;;;4.45;2.20;;;;;;;22.25;35.26;99641.81;4967878;28;20610;-96
2023/09/10 18:03:02;;;;;;;7.78;2.40;;;;;;;22.17;35.05;99632.50;4952975;28;20047;-96
2023/09/10 18:05:40;;;;;;;5.97;2.25;;;;;;;22.27;35.16;99663.44;4904764;29;20068;-96
2023/09/10 18:08:28;;;;;;;5.50;2.58;;;;;;;22.18;35.31;99653.31;4907342;29;20074;-96
2023/09/10 18:11:11;;;;;;;6.60;2.75;;;;;;;22.25;35.16;99666.50;4919837;29;20050;-96
2023/09/10 18:13:41;;;;;;;4.70;2.70;;;;;;;22.15;35.07;99651.25;4906203;29;20084;-96
2023/09/10 18:16:07;;;;;;;8.25;3.08;;;;;;;22.18;35.21;99667.03;4917578;29;20044;-96
2023/09/10 18:18:44;;;;;;;5.85;2.55;;;;;;;22.08;35.11;99661.16;4919501;29;20066;-96
2023/09/10 18:21:23;;;;;;;6.53;2.70;;;;;;;22.03;35.31;99662.19;4918008;29;20040;-96
2023/09/10 18:23:52;;;;;;;3.60;2.20;;;;;;;22.02;35.01;99666.06;4901715;29;20145;-96
2023/09/10 18:26:19;;;;;;;9.27;2.63;;;;;;;21.95;35.48;99666.59;4865955;29;20041;-96
2023/09/10 18:28:53;;;;;;;4.03;2.22;;;;;;;21.87;35.46;99655.72;4861895;29;20056;-96
2023/09/10 18:31:27;;;;;;;3.95;1.90;;;;;;;21.92;35.85;99664.53;4918004;29;20052;-96
2023/09/10 18:33:53;;;;;;;4.25;2.30;;;;;;;21.90;36.00;99669.56;4917258;29;20053;-96
2023/09/10 18:36:19;;;;;;;7.07;2.80;;;;;;;21.94;36.26;99670.50;4900939;29;20040;-96
2023/09/10 18:38:54;;;;;;;4.80;2.13;;;;;;;21.79;36.70;99660.16;4903683;29;20036;-96
2023/09/10 18:41:22;;;;;;;5.47;2.17;;;;;;;21.83;37.09;99673.97;4899973;29;20036;-96
2023/09/10 18:47:08;;;;;;;6.15;1.77;;;;;;;21.75;37.57;99668.25;4906439;29;20088;-96
2023/09/10 18:50:23;;;;;;;5.88;2.53;;;;;;;21.69;38.17;99666.84;4924571;29;20044;-96
2023/09/10 18:56:07;;;;;;;7.80;3.00;;;;;;;21.44;39.96;99676.88;4901660;29;20120;-96
2023/09/10 18:58:59;;;;;;;6.38;2.92;;;;;;;21.28;41.21;99684.06;4979381;28;20033;-96
2023/09/10 19:01:37;;;;;;;;;;;;;;;21.33;41.18;99700.28;4965461;28;20038;-96
2023/09/10 19:04:32;;;;;;;10.73;3.35;;;;;;;21.04;41.70;99681.94;4966929;28;19906;-95
2023/09/10 19:07:51;;;;;;;;;;;;;;;;;;;;;
2023/09/10 19:10:43;;;;;;;4.70;2.50;;;;;;;20.77;42.56;99692.22;4984491;28;20050;-96
2023/09/10 19:16:48;;;;;;;5.13;2.45;;;;;;;20.58;42.83;99698.88;4972467;28;20027;-96
2023/09/10 19:22:44;;;;;;;7.40;2.20;;;;;;;20.48;43.25;99715.66;4906846;29;20089;-96
2023/09/10 19:32:00;;;;;;;4.85;2.38;;;;;;;20.28;44.16;99721.81;4992764;28;20105;-96
2023/09/10 19:34:28;;;;;;;7.07;2.28;;;;;;;20.31;44.69;99738.34;4950904;28;20031;-96
2023/09/10 19:37:05;;;;;;;5.53;2.10;;;;;;;20.15;45.44;99735.34;4940757;28;20070;-96
2023/09/10 19:40:30;;;;;;;3.60;1.80;;;;;;;20.16;46.26;99749.81;4947735;29;20063;-96
2023/09/10 19:43:01;;;;;;;5.07;1.92;;;;;;;20.09;46.64;99739.38;4948500;29;20411;-96
2023/09/10 19:46:03;;;;;;;2.65;1.55;;;;;;;20.12;46.82;99746.13;4900942;29;20150;-96
2023/09/10 19:48:30;;;;;;;6.25;1.70;;;;;;;19.87;47.47;99734.06;4893732;29;20061;-96
2023/09/10 19:50:59;;;;;;;2.58;1.85;;;;;;;19.81;47.77;99736.16;4879085;29;20037;-96
2023/09/10 19:53:42;;;;;;;3.67;1.80;;;;;;;19.84;48.34;99749.19;4910891;29;20116;-96
2023/09/10 19:56:32;;;;;;;11.43;1.83;;;;;;;19.72;48.31;99744.34;4927900;29;20065;-96
2023/09/10 20:06:18;;;;;;;3.67;1.83;;;;;;;19.56;49.35;99759.56;4907575;29;20059;-96
2023/09/10 20:09:28;;;;;;;5.00;1.65;;;;;;;19.51;50.07;99749.59;4915409;29;20044;-96
2023/09/10 20:12:20;;;;;;;3.10;1.70;;;;;;;19.50;49.88;99752.63;4933855;29;20064;-96
2023/09/10 20:21:26;;;;;;;2.55;1.98;;;;;;;19.28;50.81;99754.38;4996449;28;20042;-96
2023/09/10 20:24:23;;;;;;;5.95;2.03;;;;;;;19.22;51.17;99754.84;4949282;28;20031;-96
2023/09/10 20:27:15;;;;;;;3.40;2.17;;;;;;;19.14;51.46;99742.75;4998177;28;20010;-96
2023/09/10 20:29:53;;;;;;;5.03;2.00;;;;;;;19.15;51.53;99745.19;4951817;28;20035;-96
2023/09/10 20:32:43;;;;;;;;;;;;;;;;;;;;;
2023/09/10 20:35:17;;;;;;;2.97;1.77;;;;;;;19.09;51.77;99768.28;4983708;28;20070;-96
2023/09/10 20:38:00;;;;;;;4.65;2.00;;;;;;;18.91;52.14;99750.22;4984372;28;20039;-96
2023/09/10 20:43:16;;;;;;;3.90;1.85;;;;;;;18.88;52.85;99770.75;5119870;23;20051;-96
2023/09/10 20:45:54;;;;;;;4.55;2.10;;;;;;;18.62;53.08;99742.53;4978463;28;20031;-96
2023/09/10 20:49:12;;;;;;;4.60;1.88;;;;;;;18.80;53.25;99776.16;4965949;28;20030;-96
2023/09/10 20:51:53;;;;;;;6.50;1.70;;;;;;;18.72;53.07;99764.06;4918264;29;20031;-96
2023/09/10 20:54:43;;;;;;;3.40;1.70;;;;;;;18.48;53.82;99754.31;4941886;29;20023;-96
2023/09/10 20:57:33;;;;;;;3.67;1.73;;;;;;;18.53;53.55;99754.19;4957342;29;20027;-96
2023/09/10 21:00:45;;;;;;;7.53;2.20;;;;;;;18.59;53.83;99765.75;4944106;29;20046;-96
2023/09/10 21:03:53;;;;;;;3.05;1.85;;;;;;;18.49;54.17;99761.38;4941658;29;20040;-96
2023/09/10 21:06:30;;;;;;;5.13;2.08;;;;;;;18.28;54.87;99741.19;4941959;29;20040;-96
2023/09/10 21:09:08;;;;;;;4.15;1.80;;;;;;;18.27;55.32;99753.22;4927214;29;20107;-96
2023/09/10 21:11:56;;;;;;;6.20;2.05;;;;;;;18.17;55.92;99748.81;4938151;29;20039;-96
2023/09/10 21:14:56;;;;;;;4.90;2.08;;;;;;;18.04;56.09;99747.75;4958369;29;20043;-96
2023/09/10 21:17:33;;;;;;;;;;;;;;;;;;;;;
2023/09/10 21:20:04;;;;;;;10.38;3.00;;;;;;;17.98;56.94;99754.44;4947220;29;20096;-96
2023/09/10 21:22:33;;;;;;;7.68;2.72;;;;;;;17.92;57.20;99755.66;4941191;28;20050;-96
2023/09/10 21:25:02;;;;;;;7.25;2.42;;;;;;;17.95;57.63;99776.84;4956696;28;20034;-96
2023/09/10 21:27:31;;;;;;;3.78;2.10;;;;;;;17.71;57.87;99750.66;4956698;28;20523;-96
2023/09/10 21:30:08;;;;;;;7.57;2.22;;;;;;;17.81;58.11;99771.41;4956817;28;20058;-96
2023/09/10 21:32:35;;;;;;;10.70;2.90;;;;;;;17.60;58.54;99748.44;4957169;28;20103;-96
2023/09/10 21:35:09;;;;;;;11.57;3.17;;;;;;;17.60;58.86;99754.72;4957912;28;20039;-96
2023/09/10 21:37:47;;;;;;;7.53;2.80;;;;;;;17.35;60.18;99756.88;4956973;28;20023;-96
2023/09/10 21:40:23;;;;;;;5.78;2.38;;;;;;;17.26;60.10;99755.16;4957833;28;20030;-96
2023/09/10 21:42:52;;;;;;;7.15;2.33;;;;;;;17.16;60.19;99746.13;4969088;29;20050;-96
2023/09/10 21:45:23;;;;;;;6.78;2.45;;;;;;;17.12;60.56;99750.53;4968788;29;20062;-96
2023/09/10 21:47:52;;;;;;;4.97;2.20;;;;;;;17.04;61.05;99755.91;4954351;29;20027;-96
2023/09/10 21:50:22;;;;;;;6.18;2.30;;;;;;;17.04;60.41;99750.44;4984673;28;20031;-96
2023/09/10 21:52:54;;;;;;;3.95;2.20;;;;;;;17.09;60.71;99762.03;4953506;29;20058;-95
2023/09/10 21:55:24;;;;;;;7.05;2.20;;;;;;;17.15;60.62;99776.34;4954141;28;20035;-96
2023/09/10 21:57:52;;;;;;;4.30;2.03;;;;;;;17.00;60.63;99749.44;4953200;29;20035;-96
2023/09/10 22:00:28;;;;;;;7.13;2.38;;;;;;;16.94;61.06;99752.25;4969951;29;20114;-96